TBD775 ENDU-ENTC

Flight info

Callsign TBD775
Flight time 0h 14m
Altitude 7000
Route ROSKO VAMEN TRO
Aircraft TBM8/L-SBDFGRWY/G

Departure

Time 2026-04-26 11:21
Airport Bardufoss Airport (ENDU)

Arrival

Time 2026-04-26 11:35
Airport Tromsø Airport (ENTC)
Time Latitude Longitude Altitude Speed Heading
2026-04-26 11:01 69.05839 18.54486 252 ft 0 kts 344°
2026-04-26 11:16 69.05842 18.54481 224 ft 5 kts 329°
2026-04-26 11:16 69.05855 18.54211 252 ft 20 kts 275°
2026-04-26 11:17 69.05799 18.54048 252 ft 16 kts 194°
2026-04-26 11:17 69.05682 18.54178 252 ft 20 kts 104°
2026-04-26 11:17 69.05630 18.54612 247 ft 23 kts 106°
2026-04-26 11:17 69.05578 18.55029 242 ft 25 kts 114°
2026-04-26 11:18 69.05529 18.55423 238 ft 20 kts 108°
2026-04-26 11:18 69.05481 18.55810 235 ft 21 kts 109°
2026-04-26 11:18 69.05430 18.56227 229 ft 24 kts 108°
2026-04-26 11:18 69.05380 18.56653 224 ft 22 kts 106°
2026-04-26 11:19 69.05268 18.56754 223 ft 20 kts 207°
2026-04-26 11:19 69.05256 18.56631 224 ft 0 kts 284°
2026-04-26 11:20 69.05297 18.56300 228 ft 52 kts 288°
2026-04-26 11:20 69.05484 18.54802 303 ft 103 kts 292°
2026-04-26 11:20 69.05794 18.52879 776 ft 112 kts 295°
2026-04-26 11:21 69.06069 18.50865 1480 ft 108 kts 289°
2026-04-26 11:21 69.06240 18.48801 2138 ft 115 kts 284°
2026-04-26 11:21 69.06401 18.46617 2941 ft 114 kts 287°
2026-04-26 11:21 69.06630 18.44362 3551 ft 126 kts 291°
2026-04-26 11:22 69.06911 18.42122 4375 ft 120 kts 295°
2026-04-26 11:22 69.07431 18.40215 4955 ft 130 kts 325°
2026-04-26 11:22 69.08334 18.39764 5487 ft 147 kts 12°
2026-04-26 11:22 69.09260 18.41083 6145 ft 158 kts 39°
2026-04-26 11:23 69.10103 18.43028 6777 ft 155 kts 22°
2026-04-26 11:23 69.11206 18.44175 6947 ft 182 kts 15°
2026-04-26 11:23 69.12452 18.45465 7021 ft 203 kts 18°
2026-04-26 11:23 69.13835 18.46955 6962 ft 216 kts 17°
2026-04-26 11:24 69.15271 18.48372 7021 ft 222 kts 17°
2026-04-26 11:24 69.16736 18.49786 7050 ft 224 kts 16°
2026-04-26 11:24 69.18222 18.51217 7037 ft 226 kts 16°
2026-04-26 11:24 69.19710 18.52636 7044 ft 227 kts 15°
2026-04-26 11:25 69.21210 18.54107 6998 ft 230 kts 17°
2026-04-26 11:25 69.22744 18.55582 6973 ft 230 kts 16°
2026-04-26 11:25 69.24233 18.57099 6941 ft 230 kts 16°
2026-04-26 11:25 69.25781 18.58402 6949 ft 228 kts 13°
2026-04-26 11:26 69.27312 18.59612 6921 ft 230 kts 13°
2026-04-26 11:26 69.28862 18.60945 6697 ft 237 kts 15°
2026-04-26 11:26 69.30432 18.62471 6549 ft 237 kts 16°
2026-04-26 11:26 69.31988 18.64022 6347 ft 237 kts 16°
2026-04-26 11:27 69.33526 18.65605 6143 ft 236 kts 18°
2026-04-26 11:27 69.35058 18.67363 5857 ft 239 kts 20°
2026-04-26 11:27 69.36595 18.69197 5484 ft 241 kts 20°
2026-04-26 11:27 69.38138 18.71005 5222 ft 238 kts 20°
2026-04-26 11:28 69.39657 18.72748 5033 ft 228 kts 19°
2026-04-26 11:28 69.41077 18.74362 5006 ft 214 kts 19°
2026-04-26 11:28 69.42431 18.75853 5055 ft 206 kts 15°
2026-04-26 11:28 69.43821 18.76688 5042 ft 205 kts
2026-04-26 11:29 69.45249 18.77305 4942 ft 208 kts
2026-04-26 11:29 69.46659 18.77763 4973 ft 201 kts
2026-04-26 11:29 69.48029 18.78426 5051 ft 201 kts 11°
2026-04-26 11:29 69.49361 18.79699 5005 ft 204 kts 17°
2026-04-26 11:30 69.50702 18.80741 4750 ft 198 kts
2026-04-26 11:30 69.51622 18.81193 4507 ft 198 kts
2026-04-26 11:30 69.53413 18.82144 4048 ft 199 kts 11°
2026-04-26 11:30 69.54705 18.83197 3629 ft 176 kts 13°
2026-04-26 11:31 69.55766 18.84016 3209 ft 143 kts 10°
2026-04-26 11:31 69.56670 18.84580 2982 ft 132 kts
2026-04-26 11:31 69.57572 18.84988 2784 ft 129 kts
2026-04-26 11:31 69.58454 18.85502 2492 ft 131 kts 10°
2026-04-26 11:32 69.59328 18.86180 2279 ft 123 kts
2026-04-26 11:32 69.60133 18.86719 2078 ft 117 kts
2026-04-26 11:32 69.60939 18.87055 1852 ft 116 kts
2026-04-26 11:32 69.61741 18.87506 1536 ft 120 kts
2026-04-26 11:33 69.62538 18.88060 1402 ft 119 kts
2026-04-26 11:33 69.63354 18.88598 1179 ft 123 kts 12°
2026-04-26 11:33 69.64183 18.89087 973 ft 122 kts 13°
2026-04-26 11:33 69.64992 18.89714 743 ft 118 kts
2026-04-26 11:34 69.65774 18.90217 472 ft 113 kts 11°
2026-04-26 11:34 69.66487 18.90706 309 ft 99 kts
2026-04-26 11:34 69.67152 18.91120 123 ft 98 kts
2026-04-26 11:34 69.67779 18.91524 39 ft 79 kts
2026-04-26 11:35 69.68252 18.91822 24 ft 60 kts 12°
2026-04-26 11:35 69.68575 18.92033 18 ft 40 kts 12°
2026-04-26 11:35 69.68755 18.92106 15 ft 18 kts 295°
2026-04-26 11:35 69.68779 18.91869 15 ft 16 kts 276°
2026-04-26 11:36 69.68782 18.91770 15 ft 0 kts 259°
2026-04-26 11:36 69.68765 18.91715 15 ft 14 kts 205°
2026-04-26 11:36 69.68665 18.91644 19 ft 12 kts 192°
2026-04-26 11:36 69.68563 18.91577 20 ft 18 kts 195°
2026-04-26 11:37 69.68524 18.91439 20 ft 8 kts 340°
2026-04-26 11:37 69.68516 18.91393 20 ft 0 kts 107°